x

Buoy I01 - Eastern Maine Shelf (44034) Wave Buoy

9:04 - Tue 16th Sep 2014 All times are EDT. -4 hours from GMT.

  • Sig Wave height 1.3ft
  • Peak Period 4s
  • Wind
    9mph, 11mph gusts
  • Sea Temp 53°f
  • Aire Temp 56°f
  • Sea Pressure 1013.6mb
  • Buoy I01 - Eastern Maine Shelf
  • Buoy I01 - Eastern Maine Shelf

More Historic Weather Station data

Upgrade to MSW Pro to gain access to the past 30 days of data for over 8000 Wavebouys and Weather Stations around the globe.

Join Pro

Comparision Forecast

View Surf forecast
   
mar 09/16 9:04 1.3ft 4s 9 11 mph 1013.6mb 53f 56f
8:04 1.3ft 4s 9 11 mph 1013.4mb 53f 56f
7:04 1.3ft 4s 9 11 mph 1013.3mb 53f 56f
6:04 1.3ft 6s 11
mph
1013.2mb 53f 56f
5:04  -   -  9
mph
1013.4mb 54f 56f
4:04 1.3ft 6s 4 7 mph 1013.4mb 54f 56f
3:04 1.3ft 6s 4 7 mph 1013.8mb 54f 56f
2:04 1.3ft 8s 4
mph
1014.3mb 54f 55f
1:04 1ft 4s 2 4 mph 1015.1mb 54f 56f
12:04 1.3ft 8s 2 4 mph 1015.4mb 54f 55f
11:04 1.3ft 8s 4 7 mph 1016mb 54f 55f
10:04 1.3ft 8s 7
mph
1016.6mb 53f 55f
9:04 1.6ft 8s 7 9 mph 1016.7mb 53f 56f
8:04 1.3ft 6s 9
mph
1016.9mb 53f 55f
7:04 1.3ft 8s 7 9 mph 1016.7mb 53f 55f
6:04 1.6ft 11s 7
mph
1016.5mb 53f 55f
5:04 1.3ft 8s 7 9 mph 1016.4mb 54f 55f
4:04 1.3ft 6s 7
mph
1016.6mb 54f 55f
3:04 1.3ft 8s 7 9 mph 1017.7mb 54f 55f
2:04 1.3ft 8s 7 9 mph 1018mb 54f 55f
1:04 1ft 3s 7
mph
1018.1mb 54f 55f
12:04 1.3ft 4s 9
mph
1018.3mb 54f 55f
lun 09/15 11:04 1.3ft 4s 9
mph
1018.5mb 54f 54f
10:04 1.6ft 4s 11 13 mph 1018.8mb 54f 54f
9:04 1.3ft 4s 9 11 mph 1018.7mb 54f 54f
8:04 1.3ft 4s 11 13 mph 1019mb 53f 54f
7:04 1.6ft 4s 11 16 mph 1018.6mb 53f 54f
6:04 1.6ft 3s 13 18 mph 1018.6mb 53f 54f
5:04 1.3ft 3s 16 18 mph 1018.5mb 54f 54f
4:04 1.3ft 3s 16 18 mph 1018.6mb 54f 54f
3:04 1.3ft 3s 13 16 mph 1018.8mb 54f 55f
2:04 1ft 8s 11 13 mph 1019.2mb 54f 54f
1:04 0.7ft  -  11 13 mph 1020.1mb 54f 54f
12:04 1ft 2s 2 4 mph 1020.7mb 54f 54f
11:04 1.3ft 8s 2
mph
1021.4mb 53f 54f
10:04 1.3ft 6s 4 7 mph 1021.9mb 53f 54f
9:04 1ft 3s 9
mph
1022.1mb 53f 51f
8:04 1.3ft 3s 9 11 mph 1022.4mb 53f 51f
7:04 1.3ft 3s 4 7 mph 1022.3mb 53f 51f
6:04 1.6ft 3s 9
mph
1022.1mb 53f 51f
5:04 1.3ft 3s 7 9 mph 1021.4mb 53f 51f
4:04 1.3ft 3s 9 11 mph 1021.2mb 53f 51f
3:04 1.3ft 3s 11 13 mph 1021.2mb 53f 51f
2:04 1.3ft 3s 13
mph
1021.3mb 53f 52f
1:04 1.3ft 3s 11 13 mph 1021.3mb 53f 52f
12:04 1ft 3s 11 13 mph 1021.5mb 53f 53f
dom 09/14 11:04 1.3ft 3s 11
mph
1021.7mb 53f 53f
10:04 1.6ft 3s 11 13 mph 1021.6mb 53f 54f
9:04 2ft 3s 11 13 mph 1021.7mb 53f 54f
8:04 2ft 6s 13 16 mph 1021.3mb 54f 55f
7:04 2ft 6s 13
mph
1020.9mb 54f 56f
6:04 1.3ft 3s 11 13 mph 1020.2mb 54f 56f
5:04 2ft 6s 13 16 mph 1019.2mb 54f 57f
4:04 1.6ft 6s 9 11 mph 1019mb 54f 59f
3:04 1.6ft 6s 7
mph
1018.7mb 54f 58f
2:04 1.6ft 3s 4 7 mph 1019mb 54f 56f
1:04 2ft 3s 13 16 mph 1019.1mb 54f 55f
12:04 2.5ft 4s 13 18 mph 1019mb 53f 54f
11:04 3ft 4s 18 22 mph 1019.6mb 54f 53f
10:04 2.5ft 3s 18 20 mph 1019.7mb 53f 54f
9:04 2.5ft 6s 13 18 mph 1019.4mb 53f 55f
8:04 3.5ft 6s 20 25 mph 1018.8mb 54f 56f
7:04 3ft 6s 18 20 mph 1018mb 54f 56f
6:04 3ft 6s 11
mph
1017.1mb 53f 56f
5:04 3.5ft 6s 9 13 mph 1016.6mb 54f 56f
4:04 3.5ft 6s 4 7 mph 1016.4mb 55f 56f
3:04 3.5ft 6s 4 7 mph 1016.6mb 55f 57f
2:04 4ft 5s 4 7 mph 1016.5mb 55f 57f
1:04 3.5ft 5s 9 11 mph 1016.8mb 55f 59f
12:04 3.5ft 5s 11 13 mph 1017.5mb 54f 59f
sáb 09/13 11:04 3.5ft 5s 13 16 mph 1018.1mb 54f 58f
10:04 3ft 5s 16 18 mph 1018.8mb 54f 58f
9:04 2ft 3s 20 27 mph 1019.3mb 54f 56f
8:04 2ft 4s 13 16 mph 1021.7mb 53f 56f
7:04 2ft 3s 11 13 mph 1022.1mb 53f 56f
6:04 2ft 4s 11 13 mph 1022.1mb 53f 55f
5:04 2ft 5s 11
mph
1022.6mb 54f 55f
4:04 2.5ft 5s 11 13 mph 1022.4mb 53f 55f
3:04 2.5ft 4s 9 11 mph 1023.2mb 54f 55f
2:04 3ft 5s 13
mph
1023.6mb 54f 54f
1:04 3.5ft 5s 16 18 mph 1024.1mb 53f 53f
12:04 2.5ft 5s 16 18 mph 1025mb 54f 53f
11:04 2ft 4s 16 18 mph 1025.8mb 54f 53f
10:04 2ft 3s 16 18 mph 1026.1mb 54f 52f
9:04 2.5ft 3s 16 18 mph 1026.3mb 54f 52f
8:04 2.5ft 3s 16 18 mph 1025.8mb 54f 52f
7:04 2.5ft 3s 16 20 mph 1025.3mb 54f 52f
6:04 2ft 3s 18 22 mph 1024.8mb 54f 52f
5:04 2ft 3s 18 20 mph 1024.4mb 54f 52f
4:04 2ft 3s 16 20 mph 1024.3mb 54f 53f
3:04 2ft 3s 16 18 mph 1024mb 54f 54f